Time;durP1;ratioP1;P1;durP2;ratioP2;P2;SDS_P1;SDS_P2;PMS_P1;PMS_P2;Temp;Humidity;BMP_temperature;BMP_pressure;BME280_temperature;BME280_humidity;BME280_pressure;Samples;Min_cycle;Max_cycle;Signal;HPM_P1;HPM_P2
2021/10/13 00:00:27;;;;;;;;;;;;;;;20.38;61.54;101116.69;2083734;28;997;-60
2021/10/13 00:01:27;;;;;;;;;;;;;;;20.41;62.03;101113.94;2083712;28;910;-60
2021/10/13 00:02:27;;;;;;;;;;;;;;;20.39;61.21;101118.47;2083608;28;1021;-60
2021/10/13 00:03:27;;;;;;;;;;;;;;;20.39;60.88;101115.78;2083806;28;878;-60
2021/10/13 00:04:28;;;;;;;;;;;;;;;20.38;61.53;101117.56;2083582;28;970;-60
2021/10/13 00:05:28;;;;;;;;;;;;;;;20.39;61.48;101119.34;2083793;28;772;-60
2021/10/13 00:06:28;;;;;;;;;;;;;;;20.39;61.01;101122.03;2083638;28;868;-60
2021/10/13 00:07:28;;;;;;;;;;;;;;;20.42;60.90;101118.38;2083735;28;945;-60
2021/10/13 00:08:28;;;;;;;;;;;;;;;20.39;61.84;101121.16;2083654;28;981;-60
2021/10/13 00:09:28;;;;;;;;;;;;;;;20.37;61.74;101123.00;2083460;28;756;-60
2021/10/13 00:10:29;;;;;;;;;;;;;;;20.37;61.26;101120.31;2083421;28;1117;-60
2021/10/13 00:11:29;;;;;;;;;;;;;;;20.38;61.25;101116.69;2083709;28;961;-60
2021/10/13 00:12:32;;;;;;;;;;;;;;;20.39;61.32;101123.84;2083434;28;752;-60
2021/10/13 00:13:32;;;;;;;;;;;;;;;20.38;61.23;101119.41;2083684;28;918;-60
2021/10/13 00:14:32;;;;;;;;;;;;;;;20.34;62.17;101123.97;2083601;28;776;-60
2021/10/13 00:15:32;;;;;;;;;;;;;;;20.36;61.44;101124.81;2083563;28;922;-60
2021/10/13 00:16:33;;;;;;;;;;;;;;;20.33;62.23;101119.50;2083644;28;1975;-61
2021/10/13 00:17:33;;;;;;;;;;;;;;;20.33;61.91;101124.03;2083478;28;791;-60
2021/10/13 00:18:34;;;;;;;;;;;;;;;20.32;61.69;101120.44;2082843;28;899;-60
2021/10/13 00:19:34;;;;;;;;;;;;;;;20.34;61.67;101120.41;2083272;28;808;-60
2021/10/13 00:20:34;;;;;;;;;;;;;;;20.34;61.67;101121.28;2083579;28;982;-60
2021/10/13 00:21:34;;;;;;;;;;;;;;;20.32;62.46;101123.13;2083663;28;982;-60
2021/10/13 00:22:34;;;;;;;;;;;;;;;20.33;61.23;101124.03;2083595;28;784;-59
2021/10/13 00:23:35;;;;;;;;;;;;;;;20.28;61.81;101127.72;2083633;28;1028;-60
2021/10/13 00:24:35;;;;;;;;;;;;;;;20.27;62.69;101120.56;2083593;28;826;-60
2021/10/13 00:25:35;;;;;;;;;;;;;;;20.28;61.85;101127.72;2083513;28;993;-60
2021/10/13 00:26:35;;;;;;;;;;;;;;;20.26;62.54;101121.50;2083560;28;825;-60
2021/10/13 00:27:35;;;;;;;;;;;;;;;20.23;62.68;101126.97;2083398;28;839;-60
2021/10/13 00:28:35;;;;;;;;;;;;;;;20.22;63.26;101129.69;2083603;28;783;-60
2021/10/13 00:29:36;;;;;;;;;;;;;;;20.21;62.85;101128.81;2083487;28;854;-60
2021/10/13 00:30:36;;;;;;;;;;;;;;;20.23;62.07;101129.66;2083304;28;846;-60
2021/10/13 00:31:36;;;;;;;;;;;;;;;20.19;62.81;101129.78;2083529;28;901;-60
2021/10/13 00:32:36;;;;;;;;;;;;;;;20.19;62.86;101129.78;2083528;28;1000;-60
2021/10/13 00:33:37;;;;;;;;;;;;;;;20.17;62.84;101131.63;2083534;28;866;-60
2021/10/13 00:34:37;;;;;;;;;;;;;;;20.14;63.03;101132.59;2083583;28;850;-60
2021/10/13 00:35:37;;;;;;;;;;;;;;;20.13;62.55;101133.50;2083283;28;887;-60
2021/10/13 00:36:37;;;;;;;;;;;;;;;20.15;62.40;101134.34;2083429;28;1902;-60
2021/10/13 00:37:37;;;;;;;;;;;;;;;20.14;62.52;101128.09;2083472;28;837;-60
2021/10/13 00:38:37;;;;;;;;;;;;;;;20.10;62.75;101128.22;2083440;28;969;-60
2021/10/13 00:39:38;;;;;;;;;;;;;;;20.09;62.69;101132.72;2083460;28;779;-60
2021/10/13 00:40:38;;;;;;;;;;;;;;;20.10;63.99;101134.47;2083423;28;981;-60
2021/10/13 00:41:38;;;;;;;;;;;;;;;20.09;62.66;101131.81;2083322;28;839;-60
2021/10/13 00:42:38;;;;;;;;;;;;;;;20.10;63.96;101125.53;2083460;28;934;-60
2021/10/13 00:43:39;;;;;;;;;;;;;;;20.09;62.69;101131.81;2083457;28;803;-60
2021/10/13 00:44:39;;;;;;;;;;;;;;;20.10;63.26;101133.59;2083435;28;965;-61
2021/10/13 00:45:39;;;;;;;;;;;;;;;20.11;63.21;101129.97;2083471;28;887;-61
2021/10/13 00:46:39;;;;;;;;;;;;;;;20.11;63.07;101133.56;2083425;28;1040;-60
2021/10/13 00:47:39;;;;;;;;;;;;;;;20.10;63.32;101133.59;2083346;28;989;-60
2021/10/13 00:48:39;;;;;;;;;;;;;;;20.10;63.34;101133.59;2083308;28;767;-60
2021/10/13 00:49:40;;;;;;;;;;;;;;;20.09;63.72;101135.41;2083330;28;981;-60
2021/10/13 00:50:40;;;;;;;;;;;;;;;20.06;63.61;101130.09;2083440;28;830;-60
2021/10/13 00:51:40;;;;;;;;;;;;;;;20.07;63.29;101129.19;2083190;28;965;-60
2021/10/13 00:52:41;;;;;;;;;;;;;;;20.06;64.23;101131.91;2083399;28;1016;-61
2021/10/13 00:53:42;;;;;;;;;;;;;;;20.07;63.61;101134.56;2083363;28;1052;-61
2021/10/13 00:54:42;;;;;;;;;;;;;;;20.08;62.65;101136.34;2083064;28;1040;-60
2021/10/13 00:55:43;;;;;;;;;;;;;;;20.07;63.22;101139.03;2083385;28;771;-60
2021/10/13 00:56:43;;;;;;;;;;;;;;;20.06;63.07;101138.19;2083362;28;1890;-60
2021/10/13 00:57:47;;;;;;;;;;;;;;;20.05;63.95;101149.84;2083328;28;771;-60
2021/10/13 00:58:47;;;;;;;;;;;;;;;20.05;63.57;101136.41;2083362;28;1005;-60
2021/10/13 00:59:47;;;;;;;;;;;;;;;20.07;63.13;101139.03;2083322;28;821;-60
2021/10/13 01:00:53;;;;;;;;;;;;;;;20.07;63.16;101149.81;2083342;28;910;-60
2021/10/13 01:01:58;;;;;;;;;;;;;;;20.08;63.45;101141.72;2083341;28;981;-60
2021/10/13 01:02:58;;;;;;;;;;;;;;;20.08;63.47;101140.81;2083298;28;945;-60
2021/10/13 01:04:18;;;;;;;;;;;;;;;20.08;63.40;101141.72;2083355;28;1234;-60
2021/10/13 01:05:29;;;;;;;;;;;;;;;20.07;62.79;101139.94;2055867;28;1498;-60
2021/10/13 01:06:33;;;;;;;;;;;;;;;20.07;63.36;101139.94;2058061;28;993;-60
2021/10/13 01:07:43;;;;;;;;;;;;;;;20.08;62.73;101136.34;2058069;28;1057;-60
2021/10/13 01:08:43;;;;;;;;;;;;;;;20.06;63.32;101138.19;2058000;28;879;-60
2021/10/13 01:09:54;;;;;;;;;;;;;;;20.10;63.28;101137.19;2057813;28;1049;-60
2021/10/13 01:11:13;;;;;;;;;;;;;;;20.12;63.28;101137.13;2057992;28;1295;-60
2021/10/13 01:12:28;;;;;;;;;;;;;;;20.12;62.96;101138.00;2058066;28;1126;-60
2021/10/13 01:13:34;;;;;;;;;;;;;;;20.12;62.70;101142.50;2058188;28;1321;-60
2021/10/13 01:14:39;;;;;;;;;;;;;;;20.10;63.32;101145.25;2057911;28;1010;-60
2021/10/13 01:15:52;;;;;;;;;;;;;;;20.11;62.75;101140.72;2058055;28;789;-60
2021/10/13 01:16:58;;;;;;;;;;;;;;;20.10;63.42;101145.25;2057939;28;1903;-60
2021/10/13 01:18:04;;;;;;;;;;;;;;;20.13;62.64;101138.88;2058033;28;994;-60
2021/10/13 01:19:12;;;;;;;;;;;;;;;20.10;63.12;101141.66;2058109;28;820;-60
2021/10/13 01:20:42;;;;;;;;;;;;;;;20.08;63.24;101138.13;2057752;28;1110;-60
2021/10/13 01:21:45;;;;;;;;;;;;;;;20.08;62.29;101147.09;2057905;28;852;-60
2021/10/13 01:22:55;;;;;;;;;;;;;;;20.07;62.91;101145.31;2058089;28;1021;-60
2021/10/13 01:24:04;;;;;;;;;;;;;;;20.06;64.09;101142.66;2057977;28;1006;-60
2021/10/13 01:25:10;;;;;;;;;;;;;;;20.02;64.19;101147.25;2058043;28;843;-60
2021/10/13 01:26:19;;;;;;;;;;;;;;;20.04;63.29;101149.88;2057859;28;764;-60
2021/10/13 01:27:34;;;;;;;;;;;;;;;20.06;63.89;101142.66;2058122;28;800;-61
2021/10/13 01:28:36;;;;;;;;;;;;;;;20.06;63.09;101143.56;2057714;28;991;-60
2021/10/13 01:29:38;;;;;;;;;;;;;;;20.08;62.69;101138.13;2057558;28;1455;-60
2021/10/13 01:30:59;;;;;;;;;;;;;;;20.09;62.71;101135.41;2057603;28;1118;-60
2021/10/13 01:32:02;;;;;;;;;;;;;;;20.08;63.00;101143.50;2057967;28;839;-60
2021/10/13 01:33:06;;;;;;;;;;;;;;;20.06;62.53;101140.88;2050072;28;1556;-60
2021/10/13 01:34:09;;;;;;;;;;;;;;;20.10;62.72;101141.66;2050371;28;799;-60
2021/10/13 01:35:10;;;;;;;;;;;;;;;20.10;62.74;101137.19;2058049;28;858;-60
2021/10/13 01:36:13;;;;;;;;;;;;;;;20.10;62.90;101136.28;2057660;28;1926;-61
2021/10/13 01:37:22;;;;;;;;;;;;;;;20.09;62.79;101143.47;2052583;28;1218;-60
2021/10/13 01:38:25;;;;;;;;;;;;;;;20.08;63.30;101147.09;2041987;29;1643;-60
2021/10/13 01:39:25;;;;;;;;;;;;;;;20.08;63.14;101154.25;2042223;29;907;-60
2021/10/13 01:40:27;;;;;;;;;;;;;;;20.11;63.02;101149.69;2050012;29;982;-60
2021/10/13 01:41:28;;;;;;;;;;;;;;;20.12;63.05;101147.88;2049832;29;970;-60
2021/10/13 01:42:29;;;;;;;;;;;;;;;20.10;64.02;101155.09;2049951;29;1142;-60
2021/10/13 01:43:35;;;;;;;;;;;;;;;20.09;63.10;101145.25;2078245;28;917;-60
2021/10/13 01:44:36;;;;;;;;;;;;;;;20.07;63.31;101163.25;2083114;28;838;-60
2021/10/13 01:45:37;;;;;;;;;;;;;;;20.09;63.93;101159.63;2082998;28;937;-60
2021/10/13 01:46:38;;;;;;;;;;;;;;;20.09;63.17;101161.41;2083190;28;870;-60
2021/10/13 01:47:39;;;;;;;;;;;;;;;20.07;63.36;101160.56;2083097;28;1033;-60
2021/10/13 01:48:40;;;;;;;;;;;;;;;20.07;63.76;101163.25;2083170;28;882;-60
2021/10/13 01:49:40;;;;;;;;;;;;;;;20.07;63.43;101156.09;2083105;28;1090;-60
2021/10/13 01:50:44;;;;;;;;;;;;;;;20.10;63.41;101155.09;2083180;28;799;-60
2021/10/13 01:51:46;;;;;;;;;;;;;;;20.08;64.15;101160.53;2082940;28;886;-60
2021/10/13 01:52:49;;;;;;;;;;;;;;;20.07;63.39;101156.09;2083131;28;818;-60
2021/10/13 01:53:50;;;;;;;;;;;;;;;20.07;63.71;101155.19;2082978;28;1031;-60
2021/10/13 01:54:52;;;;;;;;;;;;;;;20.07;63.86;101157.88;2083129;28;922;-60
2021/10/13 01:55:55;;;;;;;;;;;;;;;20.09;63.42;101154.22;2083056;28;796;-60
2021/10/13 01:56:55;;;;;;;;;;;;;;;20.12;62.90;101161.31;2082797;28;1898;-60
2021/10/13 01:57:57;;;;;;;;;;;;;;;20.10;63.46;101158.69;2083153;28;787;-60
2021/10/13 01:58:59;;;;;;;;;;;;;;;20.11;63.02;101168.53;2083039;28;938;-60
2021/10/13 02:00:03;;;;;;;;;;;;;;;20.11;63.03;101167.63;2082037;28;2134;-60
2021/10/13 02:01:03;;;;;;;;;;;;;;;20.12;62.78;101167.59;2083120;28;827;-59
2021/10/13 02:02:04;;;;;;;;;;;;;;;20.15;62.59;101155.88;2083028;28;914;-60
2021/10/13 02:03:06;;;;;;;;;;;;;;;20.12;62.88;101154.16;2082786;28;1044;-59
2021/10/13 02:04:08;;;;;;;;;;;;;;;20.10;62.53;101158.69;2083057;28;960;-59
2021/10/13 02:05:09;;;;;;;;;;;;;;;20.12;62.41;101166.72;2083127;28;871;-59
2021/10/13 02:06:09;;;;;;;;;;;;;;;20.12;62.66;101159.53;2083000;28;1080;-60
2021/10/13 02:07:11;;;;;;;;;;;;;;;20.11;62.96;101165.84;2083016;28;889;-60
2021/10/13 02:08:14;;;;;;;;;;;;;;;20.12;63.25;101162.22;2082953;28;780;-59
2021/10/13 02:09:19;;;;;;;;;;;;;;;20.08;63.50;101159.63;2082961;28;1442;-59
2021/10/13 02:10:21;;;;;;;;;;;;;;;20.10;63.86;101149.72;2082702;28;1165;-60
2021/10/13 02:11:24;;;;;;;;;;;;;;;20.08;63.71;101165.91;2083011;28;687;-60
2021/10/13 02:12:25;;;;;;;;;;;;;;;20.11;62.95;101162.25;2082998;28;905;-60
2021/10/13 02:13:30;;;;;;;;;;;;;;;20.10;63.86;101163.16;2083008;28;993;-60
2021/10/13 02:14:31;;;;;;;;;;;;;;;20.12;63.01;101153.25;2082893;28;1096;-60
2021/10/13 02:15:32;;;;;;;;;;;;;;;20.11;63.31;101160.47;2082959;28;914;-59
2021/10/13 02:16:33;;;;;;;;;;;;;;;20.13;63.12;101160.41;2082842;28;1969;-60
2021/10/13 02:17:36;;;;;;;;;;;;;;;20.12;63.28;101159.53;2082959;28;870;-60
2021/10/13 02:18:37;;;;;;;;;;;;;;;20.14;62.65;101162.16;2082984;28;996;-61
2021/10/13 02:19:40;;;;;;;;;;;;;;;20.13;62.64;101155.91;2082965;28;1064;-61
2021/10/13 02:20:42;;;;;;;;;;;;;;;20.11;63.06;101167.63;2083023;28;997;-61
2021/10/13 02:21:46;;;;;;;;;;;;;;;20.16;62.71;101154.06;2082633;28;1009;-60
2021/10/13 02:22:48;;;;;;;;;;;;;;;20.11;63.08;101167.63;2083003;28;958;-61
2021/10/13 02:23:49;;;;;;;;;;;;;;;20.12;62.77;101164.91;2082867;28;784;-61
2021/10/13 02:24:51;;;;;;;;;;;;;;;20.13;62.33;101172.06;2082894;28;993;-60
2021/10/13 02:25:52;;;;;;;;;;;;;;;20.06;63.17;101173.13;2082918;28;1099;-60
2021/10/13 02:26:54;;;;;;;;;;;;;;;19.99;63.59;101172.44;2082874;28;941;-60
2021/10/13 02:27:57;;;;;;;;;;;;;;;19.97;63.95;101176.06;2082839;28;795;-60
2021/10/13 02:29:00;;;;;;;;;;;;;;;19.99;63.18;101179.59;2074130;28;1184;-61
2021/10/13 02:30:01;;;;;;;;;;;;;;;19.94;63.74;101178.81;2074408;28;1008;-60
2021/10/13 02:31:01;;;;;;;;;;;;;;;19.91;63.43;101179.81;2083024;28;866;-60
2021/10/13 02:32:01;;;;;;;;;;;;;;;19.89;63.06;101181.66;2082960;28;981;-60
2021/10/13 02:33:01;;;;;;;;;;;;;;;19.93;63.18;101183.34;2082921;28;993;-61
2021/10/13 02:34:01;;;;;;;;;;;;;;;19.84;63.83;101179.03;2082930;28;949;-60
2021/10/13 02:35:03;;;;;;;;;;;;;;;19.90;63.49;101180.72;2082897;28;946;-60
2021/10/13 02:36:04;;;;;;;;;;;;;;;19.89;63.09;101181.66;2082763;28;1961;-60
2021/10/13 02:37:04;;;;;;;;;;;;;;;19.87;64.05;101185.25;2082924;28;1223;-60
2021/10/13 02:38:05;;;;;;;;;;;;;;;19.87;63.13;101183.44;2082632;28;1250;-60
2021/10/13 02:39:05;;;;;;;;;;;;;;;19.87;63.35;101183.44;2082767;28;1056;-60
2021/10/13 02:40:06;;;;;;;;;;;;;;;19.91;63.54;101184.28;2082861;28;823;-60
2021/10/13 02:41:07;;;;;;;;;;;;;;;19.85;63.22;101186.16;2082612;28;804;-60
2021/10/13 02:42:07;;;;;;;;;;;;;;;19.84;64.05;101176.31;2083221;28;970;-60
2021/10/13 02:43:09;;;;;;;;;;;;;;;19.87;64.36;101179.88;2084442;28;993;-60
2021/10/13 02:44:09;;;;;;;;;;;;;;;19.82;64.58;101180.84;2075553;28;941;-60
2021/10/13 02:45:10;;;;;;;;;;;;;;;19.84;63.34;101180.84;2075682;28;1156;-60
2021/10/13 02:46:17;;;;;;;;;;;;;;;19.84;64.00;101176.31;2084228;28;823;-60
2021/10/13 02:47:26;;;;;;;;;;;;;;;19.85;63.19;101178.09;2084417;28;1001;-60
2021/10/13 02:48:29;;;;;;;;;;;;;;;19.85;63.22;101182.59;2084432;28;905;-60
2021/10/13 02:49:38;;;;;;;;;;;;;;;19.85;63.67;101182.59;2084427;28;774;-60
2021/10/13 02:50:42;;;;;;;;;;;;;;;19.83;63.28;101181.75;2084390;28;1036;-60
2021/10/13 02:51:45;;;;;;;;;;;;;;;19.83;63.85;101133.38;2084164;28;842;-60
2021/10/13 02:52:58;;;;;;;;;;;;;;;19.80;63.65;101130.75;2084281;28;1047;-60
2021/10/13 02:54:24;;;;;;;;;;;;;;;19.79;63.91;101134.38;2084320;28;869;-60
2021/10/13 02:55:29;;;;;;;;;;;;;;;19.77;64.09;101131.69;2080045;28;974;-60
2021/10/13 02:56:31;;;;;;;;;;;;;;;19.78;64.55;101137.97;2084161;28;1898;-60
2021/10/13 02:57:33;;;;;;;;;;;;;;;19.78;64.74;101128.09;2084305;28;810;-60
2021/10/13 02:58:38;;;;;;;;;;;;;;;19.76;64.99;101139.81;2084254;28;862;-60
2021/10/13 02:59:41;;;;;;;;;;;;;;;19.80;64.01;101216.78;2084271;28;993;-60
2021/10/13 03:00:45;;;;;;;;;;;;;;;19.79;64.08;101194.38;2084254;28;806;-60
2021/10/13 03:01:46;;;;;;;;;;;;;;;19.78;64.13;101192.59;2084187;28;1000;-60
2021/10/13 03:02:48;;;;;;;;;;;;;;;19.76;63.58;101199.81;2084181;28;814;-60
2021/10/13 03:03:58;;;;;;;;;;;;;;;19.76;65.08;101194.44;2084212;28;985;-60
2021/10/13 03:04:59;;;;;;;;;;;;;;;19.75;64.96;101181.06;2084244;28;798;-60
2021/10/13 03:06:01;;;;;;;;;;;;;;;19.81;64.03;101188.97;2084222;28;914;-60
2021/10/13 03:07:10;;;;;;;;;;;;;;;19.75;64.50;101198.06;2084168;28;1056;-60
2021/10/13 03:08:13;;;;;;;;;;;;;;;19.74;64.24;101196.28;2084118;28;993;-60
2021/10/13 03:09:13;;;;;;;;;;;;;;;19.75;64.64;101190.00;2084182;28;984;-60
2021/10/13 03:10:13;;;;;;;;;;;;;;;19.74;64.03;101198.97;2083898;28;1244;-60
2021/10/13 03:11:15;;;;;;;;;;;;;;;19.76;63.05;101180.13;2084033;28;1423;-60
2021/10/13 03:12:15;;;;;;;;;;;;;;;19.77;63.54;101184.59;2084099;28;783;-60
2021/10/13 03:13:18;;;;;;;;;;;;;;;19.70;64.65;101157.88;2084080;28;964;-60
2021/10/13 03:14:22;;;;;;;;;;;;;;;19.74;63.98;101166.72;2084028;28;992;-60
2021/10/13 03:15:23;;;;;;;;;;;;;;;19.77;64.66;101174.72;2084204;28;981;-60
2021/10/13 03:16:26;;;;;;;;;;;;;;;19.78;63.96;101181.84;2083707;28;1906;-61
2021/10/13 03:17:26;;;;;;;;;;;;;;;19.77;63.87;101173.84;2084187;28;917;-60
2021/10/13 03:18:27;;;;;;;;;;;;;;;19.77;64.32;101176.53;2084019;28;1142;-60
2021/10/13 03:19:28;;;;;;;;;;;;;;;19.79;63.74;101177.38;2083944;28;1020;-60
2021/10/13 03:20:28;;;;;;;;;;;;;;;19.80;64.25;101181.84;2084136;28;1004;-60
2021/10/13 03:21:29;;;;;;;;;;;;;;;19.81;63.29;101178.22;2084062;28;798;-60
2021/10/13 03:22:30;;;;;;;;;;;;;;;19.82;63.57;101177.31;2084119;28;1394;-60
2021/10/13 03:23:30;;;;;;;;;;;;;;;19.83;63.44;101157.56;2084109;28;807;-60
2021/10/13 03:24:30;;;;;;;;;;;;;;;19.85;64.08;101166.47;2084031;28;1036;-60
2021/10/13 03:25:31;;;;;;;;;;;;;;;19.89;63.19;101168.19;2084053;28;981;-60
2021/10/13 03:26:31;;;;;;;;;;;;;;;19.89;63.49;101162.81;2083873;28;896;-60
2021/10/13 03:27:32;;;;;;;;;;;;;;;19.85;63.67;101163.78;2084082;28;984;-60
2021/10/13 03:28:33;;;;;;;;;;;;;;;19.86;62.80;101165.56;2084060;28;964;-59
2021/10/13 03:29:37;;;;;;;;;;;;;;;19.89;64.21;101172.69;2083860;28;957;-60
2021/10/13 03:30:37;;;;;;;;;;;;;;;19.85;62.99;101167.34;2084049;28;787;-60
2021/10/13 03:31:38;;;;;;;;;;;;;;;19.88;62.87;101174.47;2084060;28;760;-60
2021/10/13 03:32:42;;;;;;;;;;;;;;;19.86;63.63;101170.94;2084061;28;822;-60
2021/10/13 03:33:46;;;;;;;;;;;;;;;19.87;63.09;101174.50;2083946;28;985;-61
2021/10/13 03:34:46;;;;;;;;;;;;;;;19.89;63.07;101172.69;2083899;28;993;-60
2021/10/13 03:35:47;;;;;;;;;;;;;;;19.87;63.17;101164.63;2083983;28;771;-60
2021/10/13 03:36:48;;;;;;;;;;;;;;;19.86;63.10;101168.25;2083896;28;1890;-60
2021/10/13 03:37:49;;;;;;;;;;;;;;;19.88;63.31;101173.56;2083968;28;1044;-60
2021/10/13 03:38:49;;;;;;;;;;;;;;;19.87;63.22;101164.63;2083883;28;849;-60
2021/10/13 03:39:50;;;;;;;;;;;;;;;19.89;64.10;101170.88;2083894;28;851;-60
2021/10/13 03:40:50;;;;;;;;;;;;;;;19.89;64.04;101178.06;2084014;28;850;-60
2021/10/13 03:41:50;;;;;;;;;;;;;;;19.93;63.13;101177.97;2083880;28;981;-60
2021/10/13 03:42:50;;;;;;;;;;;;;;;19.90;63.68;101169.97;2083885;28;977;-60
2021/10/13 03:43:50;;;;;;;;;;;;;;;19.90;63.30;101172.66;2083858;28;826;-60
2021/10/13 03:44:51;;;;;;;;;;;;;;;19.93;63.43;101180.66;2083906;28;882;-60
2021/10/13 03:45:51;;;;;;;;;;;;;;;19.98;62.87;101176.03;2083884;28;816;-60
2021/10/13 03:46:51;;;;;;;;;;;;;;;19.94;62.43;101179.72;2083808;28;996;-60
2021/10/13 03:47:51;;;;;;;;;;;;;;;19.96;63.04;101179.66;2083834;28;981;-60
2021/10/13 03:48:52;;;;;;;;;;;;;;;19.91;62.55;101179.81;2083903;28;894;-60
2021/10/13 03:49:52;;;;;;;;;;;;;;;19.90;63.03;101180.72;2083518;28;913;-60
2021/10/13 03:50:53;;;;;;;;;;;;;;;19.89;63.14;101178.97;2083938;28;1032;-60
2021/10/13 03:51:53;;;;;;;;;;;;;;;19.87;63.59;101185.25;2083789;28;1025;-60
2021/10/13 03:52:53;;;;;;;;;;;;;;;19.91;62.98;101179.81;2083505;28;847;-60
2021/10/13 03:53:53;;;;;;;;;;;;;;;19.90;63.13;101183.41;2083763;28;1051;-60
2021/10/13 03:54:53;;;;;;;;;;;;;;;19.88;63.12;101182.53;2083845;28;829;-60
2021/10/13 03:55:54;;;;;;;;;;;;;;;19.89;63.88;101183.44;2083740;28;977;-60
2021/10/13 03:56:54;;;;;;;;;;;;;;;19.85;63.25;101183.47;2083695;28;1890;-60
2021/10/13 03:57:54;;;;;;;;;;;;;;;19.90;63.31;101182.50;2083824;28;1228;-60
2021/10/13 03:58:54;;;;;;;;;;;;;;;19.89;62.64;101184.34;2083784;28;1024;-60
2021/10/13 03:59:54;;;;;;;;;;;;;;;19.87;62.96;101175.38;2083780;28;776;-60
2021/10/13 04:00:54;;;;;;;;;;;;;;;19.87;63.42;101183.44;2083754;28;854;-60
2021/10/13 04:01:55;;;;;;;;;;;;;;;19.83;63.30;101185.31;2083768;28;855;-60
2021/10/13 04:02:55;;;;;;;;;;;;;;;19.88;62.92;101185.22;2083772;28;796;-60
2021/10/13 04:03:55;;;;;;;;;;;;;;;20.40;62.34;101183.00;2083731;28;1016;-60
2021/10/13 04:04:55;;;;;;;;;;;;;;;20.99;60.22;101183.19;2083755;28;830;-60
2021/10/13 04:05:55;;;;;;;;;;;;;;;21.24;59.14;101182.41;2083681;28;914;-60
2021/10/13 04:06:55;;;;;;;;;;;;;;;21.34;59.71;101167.75;2083748;28;957;-60
2021/10/13 04:07:56;;;;;;;;;;;;;;;21.44;59.16;101180.00;2083803;28;851;-60
2021/10/13 04:08:56;;;;;;;;;;;;;;;21.52;58.66;101176.19;2083575;28;1392;-60
2021/10/13 04:09:56;;;;;;;;;;;;;;;21.58;58.09;101181.38;2083605;28;1305;-60
2021/10/13 04:10:56;;;;;;;;;;;;;;;21.61;58.24;101187.53;2083667;28;867;-60
2021/10/13 04:11:57;;;;;;;;;;;;;;;21.66;58.74;101187.44;2083666;28;791;-60
2021/10/13 04:12:57;;;;;;;;;;;;;;;21.71;58.33;101185.47;2083721;28;1025;-60
2021/10/13 04:13:57;;;;;;;;;;;;;;;21.76;58.75;101183.50;2083482;28;989;-60
2021/10/13 04:14:57;;;;;;;;;;;;;;;21.80;57.39;101184.28;2083696;28;775;-60
2021/10/13 04:15:57;;;;;;;;;;;;;;;21.85;57.85;101189.50;2083574;28;838;-60
2021/10/13 04:16:58;;;;;;;;;;;;;;;21.86;57.45;101188.56;2083344;28;1983;-60
2021/10/13 04:17:58;;;;;;;;;;;;;;;21.88;58.25;101184.00;2083558;28;997;-60
2021/10/13 04:18:58;;;;;;;;;;;;;;;21.92;57.70;101191.06;2083549;28;851;-59
2021/10/13 04:19:58;;;;;;;;;;;;;;;21.92;57.91;101188.38;2083566;28;823;-60
2021/10/13 04:20:58;;;;;;;;;;;;;;;21.93;57.16;101190.13;2083573;28;855;-60
2021/10/13 04:21:59;;;;;;;;;;;;;;;21.96;57.76;101197.25;2083457;28;725;-60
2021/10/13 04:22:59;;;;;;;;;;;;;;;21.97;57.90;101193.63;2083614;28;960;-60
2021/10/13 04:23:59;;;;;;;;;;;;;;;21.99;57.59;101198.03;2083577;28;866;-60
2021/10/13 04:24:59;;;;;;;;;;;;;;;21.97;57.60;101189.09;2083425;28;1029;-62
2021/10/13 04:25:59;;;;;;;;;;;;;;;21.98;57.59;101190.00;2083529;28;1041;-61
2021/10/13 04:26:59;;;;;;;;;;;;;;;22.01;58.13;101193.47;2083577;28;910;-60
2021/10/13 04:28:00;;;;;;;;;;;;;;;22.01;59.04;101193.47;2083176;28;779;-59
2021/10/13 04:29:00;;;;;;;;;;;;;;;22.04;58.00;101192.50;2083519;28;894;-60
2021/10/13 04:30:00;;;;;;;;;;;;;;;22.03;57.38;101199.69;2083603;28;897;-60
2021/10/13 04:31:01;;;;;;;;;;;;;;;22.03;58.19;101198.81;2083530;28;787;-60
2021/10/13 04:32:01;;;;;;;;;;;;;;;22.12;57.52;101205.72;2083533;28;784;-60
2021/10/13 04:33:01;;;;;;;;;;;;;;;22.10;56.82;101194.09;2083530;28;862;-60
2021/10/13 04:34:01;;;;;;;;;;;;;;;22.09;57.64;101195.88;2083399;28;855;-60
2021/10/13 04:35:01;;;;;;;;;;;;;;;22.12;56.65;101200.31;2083434;28;1020;-60
2021/10/13 04:36:02;;;;;;;;;;;;;;;22.12;56.82;101197.59;2083359;28;787;-60
2021/10/13 04:37:02;;;;;;;;;;;;;;;22.12;57.31;101195.78;2083411;28;1897;-60
2021/10/13 04:38:03;;;;;;;;;;;;;;;22.15;56.62;101197.50;2083331;28;1051;-60
2021/10/13 04:39:03;;;;;;;;;;;;;;;22.17;56.99;101196.50;2083392;28;1001;-60
2021/10/13 04:40:04;;;;;;;;;;;;;;;22.19;56.63;101200.03;2083417;28;779;-60
2021/10/13 04:41:05;;;;;;;;;;;;;;;22.21;57.06;101191.91;2083227;28;1129;-59
2021/10/13 04:42:05;;;;;;;;;;;;;;;22.23;56.73;101189.13;2083459;28;1016;-60
2021/10/13 04:43:05;;;;;;;;;;;;;;;22.22;56.63;101188.28;2083451;28;981;-60
2021/10/13 04:44:05;;;;;;;;;;;;;;;22.25;56.72;101190.88;2083217;28;1048;-60
2021/10/13 04:45:06;;;;;;;;;;;;;;;22.30;55.57;101183.50;2083465;28;1064;-60
2021/10/13 04:46:06;;;;;;;;;;;;;;;22.29;56.22;101189.81;2083351;28;1044;-60
2021/10/13 04:47:06;;;;;;;;;;;;;;;22.28;56.83;101193.44;2083077;28;993;-60
2021/10/13 04:48:07;;;;;;;;;;;;;;;22.31;57.05;101196.03;2083364;28;1044;-60
2021/10/13 04:49:07;;;;;;;;;;;;;;;22.30;57.72;101190.69;2083363;28;981;-60
2021/10/13 04:50:07;;;;;;;;;;;;;;;22.35;56.31;101186.91;2083320;28;811;-60
2021/10/13 04:51:07;;;;;;;;;;;;;;;22.35;56.24;101194.09;2083471;28;699;-60
2021/10/13 04:52:07;;;;;;;;;;;;;;;22.29;57.19;101195.22;2083270;28;781;-60
2021/10/13 04:53:08;;;;;;;;;;;;;;;22.34;56.33;101200.44;2083450;28;898;-60
2021/10/13 04:54:08;;;;;;;;;;;;;;;22.34;57.84;101193.25;2083379;28;780;-60
2021/10/13 04:55:09;;;;;;;;;;;;;;;22.41;56.35;101196.59;2083084;28;1065;-60
2021/10/13 04:56:09;;;;;;;;;;;;;;;22.38;56.20;101201.19;2083299;28;1955;-60
2021/10/13 04:57:09;;;;;;;;;;;;;;;22.36;58.19;101201.28;2083400;28;845;-60
2021/10/13 04:58:10;;;;;;;;;;;;;;;22.32;56.99;101195.13;2083303;28;973;-60
2021/10/13 04:59:10;;;;;;;;;;;;;;;22.36;57.59;101188.66;2083426;28;905;-60
2021/10/13 05:00:10;;;;;;;;;;;;;;;22.36;57.53;101195.88;2083265;28;1028;-60
2021/10/13 05:01:10;;;;;;;;;;;;;;;22.35;58.40;101200.41;2083360;28;1048;-60
2021/10/13 05:02:10;;;;;;;;;;;;;;;22.33;58.27;101196.88;2083339;28;843;-60
2021/10/13 05:03:11;;;;;;;;;;;;;;;22.31;57.68;101193.34;2083178;28;921;-60
2021/10/13 05:04:11;;;;;;;;;;;;;;;22.34;56.94;101197.75;2083275;28;1016;-60
2021/10/13 05:05:11;;;;;;;;;;;;;;;22.31;57.26;101196.03;2082599;28;1364;-60
2021/10/13 05:06:11;;;;;;;;;;;;;;;22.32;57.42;101194.22;2083193;28;680;-60
2021/10/13 05:07:11;;;;;;;;;;;;;;;22.29;58.17;101197.91;2083339;28;858;-60
2021/10/13 05:08:11;;;;;;;;;;;;;;;22.30;58.12;101205.06;2083249;28;1399;-60
2021/10/13 05:09:12;;;;;;;;;;;;;;;22.28;57.69;101198.84;2083299;28;909;-60
2021/10/13 05:10:12;;;;;;;;;;;;;;;22.32;57.42;101208.59;2083097;28;1078;-60
2021/10/13 05:11:12;;;;;;;;;;;;;;;22.38;56.75;101206.59;2083212;28;1306;-60
2021/10/13 05:12:12;;;;;;;;;;;;;;;22.34;56.70;101204.03;2083223;28;873;-60
2021/10/13 05:13:12;;;;;;;;;;;;;;;22.34;57.68;101209.44;2083193;28;980;-60
2021/10/13 05:14:12;;;;;;;;;;;;;;;22.38;57.27;101204.78;2083424;28;673;-60
2021/10/13 05:15:13;;;;;;;;;;;;;;;22.39;56.83;101211.06;2083282;28;779;-60
2021/10/13 05:16:13;;;;;;;;;;;;;;;22.38;57.77;101214.69;2082842;28;1918;-60
2021/10/13 05:17:13;;;;;;;;;;;;;;;22.38;57.22;101210.19;2083270;28;933;-60
2021/10/13 05:18:14;;;;;;;;;;;;;;;22.38;57.21;101209.28;2083256;28;973;-60
2021/10/13 05:19:14;;;;;;;;;;;;;;;22.35;57.27;101207.59;2083239;28;826;-60
2021/10/13 05:20:14;;;;;;;;;;;;;;;22.39;57.09;101216.47;2083109;28;989;-60
2021/10/13 05:21:15;;;;;;;;;;;;;;;22.40;57.57;101210.13;2083169;28;804;-60
2021/10/13 05:22:15;;;;;;;;;;;;;;;22.39;56.99;101211.06;2083181;28;811;-60
2021/10/13 05:23:15;;;;;;;;;;;;;;;22.45;56.82;101210.88;2083244;28;814;-60
2021/10/13 05:24:15;;;;;;;;;;;;;;;22.41;56.68;101207.38;2083223;28;1077;-60